logo tempoitalia

Diretta Meteo Dolny Hricov, Slovacchiamartedì 17 maggio ore 06:30

Mappa
Sereno 11 °C Pioggia 24 Ore: T.min 10 T.max 25
Ponente Nord-Est Km/h 14.8 Punto di rugiada: 10 °C Umidità: 93% Visibilità: 10 Km
Il sole sorge alle: 04:57 Il sole tramonta alle: 20:26
17 Maggio 2022 06:30 tempo osservato: Pioggia Pioggia 11 93 1018 vento: Nord NE 14.8
17 Maggio 2022 06:00 tempo osservato: Pioggia Pioggia 11 93 1018 vento: Nord E 11.1
17 Maggio 2022 05:30 tempo osservato: Pioggia Pioggia 11 81 1018 vento: Nord E/SE 9.3
17 Maggio 2022 05:00 tempo osservato: Pioggia Pioggia 11 76 1017 vento: Nord NE 7.4
17 Maggio 2022 04:30 tempo osservato: Sereno Sereno 11 76 1017 vento: Nord N 3.7
17 Maggio 2022 04:00 tempo osservato: Sereno Sereno 11 71 1017 vento: Nord N 3.7
17 Maggio 2022 03:30 tempo osservato: Sereno Sereno 11 71 1017 vento: Nord N 5.5
17 Maggio 2022 03:00 tempo osservato: Sereno Sereno 11 71 1017 vento: Nord E 7.4
17 Maggio 2022 02:30 tempo osservato: Sereno Sereno 11 71 1018 vento: Nord N 5.5
17 Maggio 2022 02:00 tempo osservato: Sereno Sereno 11 71 1018 vento: Nord N 3.7
17 Maggio 2022 01:30 tempo osservato: Sereno Sereno 10 81 1018 vento: Nord N 3.7
17 Maggio 2022 01:00 tempo osservato: Sereno Sereno 11 71 1018 vento: Nord N 3.7
17 Maggio 2022 00:30 tempo osservato: Sereno Sereno 11 76 1018 vento: Nord N 1.8
17 Maggio 2022 00:00 tempo osservato: Sereno Sereno 12 81 1018 vento: Nord N 1.8
16 Maggio 2022 23:30 tempo osservato: Sereno Sereno 12 71 1018 vento: Nord N 5.5
16 Maggio 2022 23:00 tempo osservato: Sereno Sereno 14 62 1018 vento: Nord N 1.8
16 Maggio 2022 22:30 tempo osservato: Sereno Sereno 14 62 1018 vento: Nord N 1.8
16 Maggio 2022 22:00 tempo osservato: Sereno Sereno 15 58 1018 vento: Nord N 5.5
16 Maggio 2022 21:30 tempo osservato: Sereno Sereno 16 55 1018 vento: Nord N 3.7
16 Maggio 2022 21:00 tempo osservato: Sereno Sereno 18 48 1018 vento: Nord N 1.8
16 Maggio 2022 20:30 tempo osservato: Sereno Sereno 20 42 1017 vento: Nord N 3.7
16 Maggio 2022 20:00 tempo osservato: Sereno Sereno 21 37 1017 vento: Nord N 1.8
16 Maggio 2022 19:30 tempo osservato: Sereno Sereno 22 37 1017 vento: Nord NE 9.3
16 Maggio 2022 19:00 tempo osservato: Sereno Sereno 23 35 1016 vento: Nord N/NE 11.1
16 Maggio 2022 18:30 tempo osservato: Sereno Sereno 23 38 1016 vento: Nord NE 13
16 Maggio 2022 18:00 tempo osservato: Sereno Sereno 24 35 1016 vento: Nord N 5.5
16 Maggio 2022 17:30 tempo osservato: Sereno Sereno 25 29 1017 vento: Nord O/SO 7.4
16 Maggio 2022 17:00 tempo osservato: Sereno Sereno 25 29 1017 vento: Nord N 5.5
16 Maggio 2022 16:30 tempo osservato: Sereno Sereno 25 31 1017 vento: Nord O 7.4
16 Maggio 2022 16:00 tempo osservato: Poco Nuvoloso Poco Nuvoloso 25 31 1017 vento: Nord SO 7.4
16 Maggio 2022 15:30 tempo osservato: Poco Nuvoloso Poco Nuvoloso 25 33 1018 vento: Nord O/SO 7.4
16 Maggio 2022 15:00 tempo osservato: Poco Nuvoloso Poco Nuvoloso 25 33 1018 vento: Nord N 5.5
16 Maggio 2022 14:30 tempo osservato: Poco Nuvoloso Poco Nuvoloso 24 33 1018 vento: Nord N 3.7
16 Maggio 2022 14:00 tempo osservato: Poco Nuvoloso Poco Nuvoloso 24 33 1019 vento: Nord E/NE 7.4
16 Maggio 2022 13:30 tempo osservato: Poco Nuvoloso Poco Nuvoloso 23 38 1019 vento: Nord N 3.7
16 Maggio 2022 13:00 tempo osservato: Poco Nuvoloso Poco Nuvoloso 22 35 1019 vento: Nord N 3.7
16 Maggio 2022 12:30 tempo osservato: Poco Nuvoloso Poco Nuvoloso 22 37 1019 vento: Nord N 5.5
16 Maggio 2022 12:00 tempo osservato: Poco Nuvoloso Poco Nuvoloso 22 40 1019 vento: Nord N 5.5
16 Maggio 2022 11:30 tempo osservato: Sereno Sereno 21 40 1020 vento: Nord N 3.7
16 Maggio 2022 11:00 tempo osservato: Sereno Sereno 21 46 1020 vento: Nord E/SE 7.4
16 Maggio 2022 10:30 tempo osservato: Sereno Sereno 20 42 1020 vento: Nord E/SE 7.4
16 Maggio 2022 10:00 tempo osservato: Sereno Sereno 19 52 1020 vento: Nord N 5.5
16 Maggio 2022 09:30 tempo osservato: Sereno Sereno 17 59 1020 vento: Nord E 7.4
16 Maggio 2022 09:00 tempo osservato: Sereno Sereno 15 62 1020 vento: Nord E/NE 9.3
16 Maggio 2022 08:30 tempo osservato: Sereno Sereno 13 71 1020 vento: Nord E/NE 11.1
16 Maggio 2022 08:00 tempo osservato: Sereno Sereno 12 76 1021 vento: Nord E/NE 11.1
16 Maggio 2022 07:30 tempo osservato: Sereno Sereno 11 76 1021 vento: Nord E/NE 13
16 Maggio 2022 07:00 tempo osservato: Sereno Sereno 10 81 1021 vento: Nord E 11.1